Pagina principale
METAR-TAF:

METAR-TAF

Aeroporti :

Mont-De-Marsan, Francia

latitudine: 43-55N, longitudine: 000-30W, altezza: 62 m

Osservazione

Il bollettino è stato emesso 24 minuti fa, alle 19:30 UTC
Vento 3 kt da est
Temperature 6°C
Umidità 93%
Pressione 1006 hPa
Visibilità 10 km o più
nessuna nube inferiore a 1500 m e nessun cumulonembo

METAR: LFBM 211930Z AUTO 09003KT CAVOK 06/05 Q1006 NOSIG

Ora: 20:54 (19:54 UTC)

Previsione

Il bollettino è stato emesso 5 ore e 54 minuti fa, alle 14:00 UTC
Previsione valida dal 21 alle 15 UTC al 22 alle 15 UTC
Vento 5 kt da sud-est
Visibilità 10 km o più
nessuna nube inferiore a 1500 m e nessun cumulonembo
Temporaneamente
dal 21 alle 15 UTC al 21 alle 19 UTC
Vento 5 kt da ovest con raffiche fino a 15 kt
Nuvoloso ad un'altezza di 3000 ft, Cumulo congesto.
rovesci di pioggia

TAF: LFBM 211400Z 2115/2215 14005KT CAVOK TEMPO 2115/2119 26005G15KT SHRA BKN030TCU

Osservazioni e previsioni meteorologiche di più di 4000 aeroporti (messaggi METAR e TAF).

Le stazioni disponibili sono rappresentate dai dischi gialli e rossi sulla carta.

Puntare il mouse per vedere il nome della stazione.

Clicca sopra per visualizzare le osservazioni e previsioni meteorologiche.

Per cambiare la mappa : fare clic sui pulsanti verdi con una croce nera per ingrandire, il pulsante verde con un trattino per diminuire, o sulla freccia verde per le mappe adiacenti.


METAR-TAF: